sensor_id;sensor_type;location;lat;lon;timestamp;pressure;altitude;pressure_sealevel;temperature;humidity
67818;BME280;54614;47.576;7.524;2022-08-01T00:01:08;98615.00;;;27.97;43.00
67818;BME280;54614;47.576;7.524;2022-08-01T00:03:34;98624.81;;;27.68;43.13
67818;BME280;54614;47.576;7.524;2022-08-01T00:06:00;98615.00;;;27.85;43.26
67818;BME280;54614;47.576;7.524;2022-08-01T00:08:26;98623.59;;;27.93;43.12
67818;BME280;54614;47.576;7.524;2022-08-01T00:10:52;98623.94;;;27.97;43.00
67818;BME280;54614;47.576;7.524;2022-08-01T00:13:17;98615.69;;;27.80;42.83
67818;BME280;54614;47.576;7.524;2022-08-01T00:15:43;98616.50;;;27.81;43.02
67818;BME280;54614;47.576;7.524;2022-08-01T00:18:09;98609.00;;;27.83;43.14
67818;BME280;54614;47.576;7.524;2022-08-01T00:20:35;98609.59;;;27.85;43.21
67818;BME280;54614;47.576;7.524;2022-08-01T00:23:03;98605.59;;;27.87;43.07
67818;BME280;54614;47.576;7.524;2022-08-01T00:25:29;98611.47;;;27.84;42.92
67818;BME280;54614;47.576;7.524;2022-08-01T00:27:54;98608.38;;;27.69;43.28
67818;BME280;54614;47.576;7.524;2022-08-01T00:30:20;98613.78;;;27.69;43.08
67818;BME280;54614;47.576;7.524;2022-08-01T00:32:46;98603.13;;;27.86;42.68
67818;BME280;54614;47.576;7.524;2022-08-01T00:35:12;98613.09;;;27.85;42.75
67818;BME280;54614;47.576;7.524;2022-08-01T00:37:39;98610.16;;;27.75;43.03
67818;BME280;54614;47.576;7.524;2022-08-01T00:40:06;98608.41;;;27.81;42.50
67818;BME280;54614;47.576;7.524;2022-08-01T00:42:33;98615.53;;;27.64;42.86
67818;BME280;54614;47.576;7.524;2022-08-01T00:44:59;98618.81;;;27.66;43.09
67818;BME280;54614;47.576;7.524;2022-08-01T00:47:25;98609.56;;;27.73;42.84
67818;BME280;54614;47.576;7.524;2022-08-01T00:49:50;98618.84;;;27.47;43.42
67818;BME280;54614;47.576;7.524;2022-08-01T00:52:17;98625.13;;;27.29;43.80
67818;BME280;54614;47.576;7.524;2022-08-01T00:54:43;98622.00;;;27.14;44.02
67818;BME280;54614;47.576;7.524;2022-08-01T00:57:10;98622.22;;;26.76;44.88
67818;BME280;54614;47.576;7.524;2022-08-01T00:59:36;98626.56;;;26.77;44.97
67818;BME280;54614;47.576;7.524;2022-08-01T01:02:02;98624.63;;;26.66;45.22
67818;BME280;54614;47.576;7.524;2022-08-01T01:04:28;98628.88;;;26.55;45.45
67818;BME280;54614;47.576;7.524;2022-08-01T01:07:17;98619.66;;;26.45;45.48
67818;BME280;54614;47.576;7.524;2022-08-01T01:12:44;98628.13;;;26.48;45.36
67818;BME280;54614;47.576;7.524;2022-08-01T01:17:58;98623.56;;;26.49;45.25
67818;BME280;54614;47.576;7.524;2022-08-01T01:20:36;98621.25;;;26.52;45.48
67818;BME280;54614;47.576;7.524;2022-08-01T01:26:11;98627.47;;;26.53;45.29
67818;BME280;54614;47.576;7.524;2022-08-01T01:31:25;98621.19;;;26.77;44.78
67818;BME280;54614;47.576;7.524;2022-08-01T01:33:55;98625.97;;;26.93;44.56
67818;BME280;54614;47.576;7.524;2022-08-01T01:36:25;98622.16;;;27.01;44.46
67818;BME280;54614;47.576;7.524;2022-08-01T01:38:53;98620.47;;;27.37;43.73
67818;BME280;54614;47.576;7.524;2022-08-01T01:41:22;98623.38;;;27.35;43.55
67818;BME280;54614;47.576;7.524;2022-08-01T01:43:50;98630.47;;;27.48;43.30
67818;BME280;54614;47.576;7.524;2022-08-01T01:46:22;98626.34;;;27.64;43.00
67818;BME280;54614;47.576;7.524;2022-08-01T01:48:51;98619.81;;;27.83;42.80
67818;BME280;54614;47.576;7.524;2022-08-01T01:51:22;98618.50;;;27.85;42.46
67818;BME280;54614;47.576;7.524;2022-08-01T01:53:52;98620.28;;;27.80;42.94
67818;BME280;54614;47.576;7.524;2022-08-01T01:56:21;98622.28;;;27.84;42.66
67818;BME280;54614;47.576;7.524;2022-08-01T01:58:59;98625.50;;;27.63;43.10
67818;BME280;54614;47.576;7.524;2022-08-01T02:01:29;98622.84;;;27.75;42.66
67818;BME280;54614;47.576;7.524;2022-08-01T02:03:57;98618.75;;;27.84;42.63
67818;BME280;54614;47.576;7.524;2022-08-01T02:06:25;98627.19;;;27.76;42.66
67818;BME280;54614;47.576;7.524;2022-08-01T02:08:54;98627.69;;;27.84;42.43
67818;BME280;54614;47.576;7.524;2022-08-01T02:11:21;98629.31;;;27.74;42.85
67818;BME280;54614;47.576;7.524;2022-08-01T02:14:01;98629.44;;;27.79;42.52
67818;BME280;54614;47.576;7.524;2022-08-01T02:16:34;98630.16;;;27.86;42.36
67818;BME280;54614;47.576;7.524;2022-08-01T02:19:01;98629.31;;;27.74;42.73
67818;BME280;54614;47.576;7.524;2022-08-01T02:21:32;98627.31;;;27.81;42.57
67818;BME280;54614;47.576;7.524;2022-08-01T02:24:24;98628.38;;;27.80;42.63
67818;BME280;54614;47.576;7.524;2022-08-01T02:26:56;98626.75;;;27.90;42.50
67818;BME280;54614;47.576;7.524;2022-08-01T02:29:39;98621.47;;;27.96;42.62
67818;BME280;54614;47.576;7.524;2022-08-01T02:32:11;98626.59;;;27.74;42.50
67818;BME280;54614;47.576;7.524;2022-08-01T02:34:41;98624.38;;;27.82;42.55
67818;BME280;54614;47.576;7.524;2022-08-01T02:37:12;98623.06;;;27.73;42.73
67818;BME280;54614;47.576;7.524;2022-08-01T02:39:40;98624.50;;;27.87;42.38
67818;BME280;54614;47.576;7.524;2022-08-01T02:42:11;98623.53;;;27.70;42.60
67818;BME280;54614;47.576;7.524;2022-08-01T02:44:41;98626.41;;;27.87;42.45
67818;BME280;54614;47.576;7.524;2022-08-01T02:47:08;98621.69;;;27.82;42.80
67818;BME280;54614;47.576;7.524;2022-08-01T02:49:42;98624.63;;;27.92;42.47
67818;BME280;54614;47.576;7.524;2022-08-01T02:52:14;98622.47;;;27.71;42.96
67818;BME280;54614;47.576;7.524;2022-08-01T02:54:44;98617.00;;;27.89;42.37
67818;BME280;54614;47.576;7.524;2022-08-01T02:57:12;98627.09;;;27.94;42.42
67818;BME280;54614;47.576;7.524;2022-08-01T02:59:42;98617.00;;;27.89;42.33
67818;BME280;54614;47.576;7.524;2022-08-01T03:02:10;98620.16;;;27.86;42.26
67818;BME280;54614;47.576;7.524;2022-08-01T03:04:40;98618.16;;;27.82;42.59
67818;BME280;54614;47.576;7.524;2022-08-01T03:07:09;98616.28;;;27.82;42.27
67818;BME280;54614;47.576;7.524;2022-08-01T03:09:43;98620.38;;;27.73;42.65
67818;BME280;54614;47.576;7.524;2022-08-01T03:12:23;98616.75;;;27.91;42.42
67818;BME280;54614;47.576;7.524;2022-08-01T03:14:54;98618.28;;;27.57;42.84
67818;BME280;54614;47.576;7.524;2022-08-01T03:17:24;98617.78;;;27.67;42.85
67818;BME280;54614;47.576;7.524;2022-08-01T03:19:53;98626.47;;;27.69;42.74
67818;BME280;54614;47.576;7.524;2022-08-01T03:22:23;98624.41;;;27.94;42.29
67818;BME280;54614;47.576;7.524;2022-08-01T03:24:52;98622.03;;;27.86;42.41
67818;BME280;54614;47.576;7.524;2022-08-01T03:27:22;98618.41;;;27.92;42.32
67818;BME280;54614;47.576;7.524;2022-08-01T03:29:51;98614.31;;;27.59;43.17
67818;BME280;54614;47.576;7.524;2022-08-01T03:32:19;98624.03;;;27.79;42.62
67818;BME280;54614;47.576;7.524;2022-08-01T03:34:46;98628.00;;;27.76;42.71
67818;BME280;54614;47.576;7.524;2022-08-01T03:37:26;98632.38;;;27.77;42.52
67818;BME280;54614;47.576;7.524;2022-08-01T03:40:19;98627.44;;;27.86;42.43
67818;BME280;54614;47.576;7.524;2022-08-01T03:42:50;98623.56;;;27.82;42.35
67818;BME280;54614;47.576;7.524;2022-08-01T03:45:27;98629.44;;;27.79;42.60
67818;BME280;54614;47.576;7.524;2022-08-01T03:48:06;98632.50;;;27.82;42.86
67818;BME280;54614;47.576;7.524;2022-08-01T03:50:35;98630.50;;;27.78;42.58
67818;BME280;54614;47.576;7.524;2022-08-01T03:53:08;98634.81;;;27.67;42.82
67818;BME280;54614;47.576;7.524;2022-08-01T03:55:38;98633.78;;;27.80;42.56
67818;BME280;54614;47.576;7.524;2022-08-01T03:58:06;98637.75;;;27.66;42.71
67818;BME280;54614;47.576;7.524;2022-08-01T04:00:35;98626.72;;;27.79;42.50
67818;BME280;54614;47.576;7.524;2022-08-01T04:03:07;98628.47;;;27.73;42.57
67818;BME280;54614;47.576;7.524;2022-08-01T04:05:34;98629.44;;;27.79;42.34
67818;BME280;54614;47.576;7.524;2022-08-01T04:08:00;98633.69;;;27.86;42.10
67818;BME280;54614;47.576;7.524;2022-08-01T04:10:29;98640.72;;;27.87;42.45
67818;BME280;54614;47.576;7.524;2022-08-01T04:12:55;98631.22;;;27.85;41.96
67818;BME280;54614;47.576;7.524;2022-08-01T04:15:21;98639.09;;;27.86;42.01
67818;BME280;54614;47.576;7.524;2022-08-01T04:17:48;98640.25;;;27.79;42.15
67818;BME280;54614;47.576;7.524;2022-08-01T04:20:14;98640.94;;;27.74;42.33
67818;BME280;54614;47.576;7.524;2022-08-01T04:22:41;98639.91;;;27.87;42.15
67818;BME280;54614;47.576;7.524;2022-08-01T04:25:32;98639.84;;;27.64;42.45
67818;BME280;54614;47.576;7.524;2022-08-01T04:28:01;98647.63;;;27.72;42.34
67818;BME280;54614;47.576;7.524;2022-08-01T04:30:34;98653.88;;;27.54;42.52
67818;BME280;54614;47.576;7.524;2022-08-01T04:33:04;98642.34;;;27.77;42.47
67818;BME280;54614;47.576;7.524;2022-08-01T04:35:33;98649.41;;;27.78;42.27
67818;BME280;54614;47.576;7.524;2022-08-01T04:38:03;98651.97;;;27.73;42.28
67818;BME280;54614;47.576;7.524;2022-08-01T04:40:31;98654.22;;;27.76;42.54
67818;BME280;54614;47.576;7.524;2022-08-01T04:42:57;98656.06;;;27.64;42.72
67818;BME280;54614;47.576;7.524;2022-08-01T04:45:24;98661.13;;;27.72;42.42
67818;BME280;54614;47.576;7.524;2022-08-01T04:47:50;98646.69;;;27.78;42.25
67818;BME280;54614;47.576;7.524;2022-08-01T04:50:17;98654.09;;;27.71;42.27
67818;BME280;54614;47.576;7.524;2022-08-01T04:52:43;98652.31;;;27.65;42.37
67818;BME280;54614;47.576;7.524;2022-08-01T04:55:09;98649.25;;;27.61;42.71
67818;BME280;54614;47.576;7.524;2022-08-01T04:57:39;98650.34;;;27.83;42.50
67818;BME280;54614;47.576;7.524;2022-08-01T05:00:08;98651.06;;;27.79;42.23
67818;BME280;54614;47.576;7.524;2022-08-01T05:02:34;98650.13;;;27.85;42.25
67818;BME280;54614;47.576;7.524;2022-08-01T05:05:00;98655.44;;;27.91;42.20
67818;BME280;54614;47.576;7.524;2022-08-01T05:07:26;98649.19;;;27.91;42.87
67818;BME280;54614;47.576;7.524;2022-08-01T05:09:51;98649.75;;;27.81;42.68
67818;BME280;54614;47.576;7.524;2022-08-01T05:12:17;98656.59;;;27.84;42.69
67818;BME280;54614;47.576;7.524;2022-08-01T05:14:44;98656.13;;;27.87;42.58
67818;BME280;54614;47.576;7.524;2022-08-01T05:17:10;98653.06;;;27.83;42.76
67818;BME280;54614;47.576;7.524;2022-08-01T05:19:38;98656.13;;;27.87;42.66
67818;BME280;54614;47.576;7.524;2022-08-01T05:22:08;98661.63;;;27.80;42.74
67818;BME280;54614;47.576;7.524;2022-08-01T05:24:37;98665.72;;;27.71;43.06
67818;BME280;54614;47.576;7.524;2022-08-01T05:27:04;98665.72;;;27.71;43.36
67818;BME280;54614;47.576;7.524;2022-08-01T05:29:30;98659.53;;;27.82;42.92
67818;BME280;54614;47.576;7.524;2022-08-01T05:31:56;98656.72;;;27.89;42.77
67818;BME280;54614;47.576;7.524;2022-08-01T05:34:24;98663.38;;;27.75;43.13
67818;BME280;54614;47.576;7.524;2022-08-01T05:36:50;98664.94;;;27.82;42.96
67818;BME280;54614;47.576;7.524;2022-08-01T05:39:16;98657.66;;;27.83;42.97
67818;BME280;54614;47.576;7.524;2022-08-01T05:41:42;98663.09;;;27.95;42.65
67818;BME280;54614;47.576;7.524;2022-08-01T05:44:08;98649.53;;;27.83;43.16
67818;BME280;54614;47.576;7.524;2022-08-01T05:46:35;98655.31;;;27.86;42.99
67818;BME280;54614;47.576;7.524;2022-08-01T05:49:02;98658.84;;;27.87;43.11
67818;BME280;54614;47.576;7.524;2022-08-01T05:51:29;98669.38;;;27.77;43.18
67818;BME280;54614;47.576;7.524;2022-08-01T05:53:57;98658.22;;;27.73;43.31
67818;BME280;54614;47.576;7.524;2022-08-01T05:56:23;98661.88;;;27.79;43.16
67818;BME280;54614;47.576;7.524;2022-08-01T05:58:50;98659.88;;;27.86;43.18
67818;BME280;54614;47.576;7.524;2022-08-01T06:01:18;98660.94;;;27.85;42.95
67818;BME280;54614;47.576;7.524;2022-08-01T06:03:44;98665.75;;;27.83;43.18
67818;BME280;54614;47.576;7.524;2022-08-01T06:06:10;98667.28;;;27.79;43.30
67818;BME280;54614;47.576;7.524;2022-08-01T06:08:36;98661.88;;;27.79;43.37
67818;BME280;54614;47.576;7.524;2022-08-01T06:11:02;98667.53;;;27.89;43.10
67818;BME280;54614;47.576;7.524;2022-08-01T06:13:28;98669.66;;;27.87;43.25
67818;BME280;54614;47.576;7.524;2022-08-01T06:15:54;98671.75;;;27.85;43.60
67818;BME280;54614;47.576;7.524;2022-08-01T06:18:20;98671.50;;;27.75;43.46
67818;BME280;54614;47.576;7.524;2022-08-01T06:20:46;98661.25;;;27.65;43.97
67818;BME280;54614;47.576;7.524;2022-08-01T06:23:13;98669.56;;;27.64;43.85
67818;BME280;54614;47.576;7.524;2022-08-01T06:25:42;98667.41;;;27.54;44.10
67818;BME280;54614;47.576;7.524;2022-08-01T06:28:08;98673.94;;;27.46;43.27
67818;BME280;54614;47.576;7.524;2022-08-01T06:30:33;98673.19;;;27.39;43.52
67818;BME280;54614;47.576;7.524;2022-08-01T06:32:59;98670.97;;;27.36;43.36
67818;BME280;54614;47.576;7.524;2022-08-01T06:35:27;98673.97;;;27.28;42.91
67818;BME280;54614;47.576;7.524;2022-08-01T06:37:58;98672.31;;;27.27;42.97
67818;BME280;54614;47.576;7.524;2022-08-01T06:40:24;98670.91;;;27.24;42.94
67818;BME280;54614;47.576;7.524;2022-08-01T06:42:50;98662.56;;;27.26;42.74
67818;BME280;54614;47.576;7.524;2022-08-01T06:45:16;98673.22;;;27.21;42.74
67818;BME280;54614;47.576;7.524;2022-08-01T06:47:44;98665.13;;;27.21;42.96
67818;BME280;54614;47.576;7.524;2022-08-01T06:50:11;98657.63;;;27.23;42.66
67818;BME280;54614;47.576;7.524;2022-08-01T06:52:37;98659.13;;;27.19;42.90
67818;BME280;54614;47.576;7.524;2022-08-01T06:55:04;98654.41;;;27.14;43.47
67818;BME280;54614;47.576;7.524;2022-08-01T06:57:30;98661.59;;;27.20;43.24
67818;BME280;54614;47.576;7.524;2022-08-01T06:59:56;98653.97;;;27.17;43.23
67818;BME280;54614;47.576;7.524;2022-08-01T07:02:23;98655.38;;;27.20;43.13
67818;BME280;54614;47.576;7.524;2022-08-01T07:04:49;98651.63;;;27.21;43.61
67818;BME280;54614;47.576;7.524;2022-08-01T07:07:15;98648.94;;;27.03;43.71
67818;BME280;54614;47.576;7.524;2022-08-01T07:09:41;98655.41;;;27.02;43.79
67818;BME280;54614;47.576;7.524;2022-08-01T07:12:08;98653.88;;;27.06;44.13
67818;BME280;54614;47.576;7.524;2022-08-01T07:14:34;98653.72;;;27.19;43.66
67818;BME280;54614;47.576;7.524;2022-08-01T07:16:59;98652.09;;;27.48;42.98
67818;BME280;54614;47.576;7.524;2022-08-01T07:19:25;98654.94;;;27.53;42.99
67818;BME280;54614;47.576;7.524;2022-08-01T07:21:52;98654.72;;;27.54;42.87
67818;BME280;54614;47.576;7.524;2022-08-01T07:24:18;98649.31;;;27.54;42.70
67818;BME280;54614;47.576;7.524;2022-08-01T07:26:47;98656.81;;;27.52;42.89
67818;BME280;54614;47.576;7.524;2022-08-01T07:29:14;98652.38;;;27.58;42.50
67818;BME280;54614;47.576;7.524;2022-08-01T07:31:40;98656.72;;;27.59;42.87
67818;BME280;54614;47.576;7.524;2022-08-01T07:34:07;98650.50;;;27.58;42.96
67818;BME280;54614;47.576;7.524;2022-08-01T07:36:33;98648.03;;;27.57;43.19
67818;BME280;54614;47.576;7.524;2022-08-01T07:38:59;98646.06;;;27.64;42.89
67818;BME280;54614;47.576;7.524;2022-08-01T07:41:25;98645.03;;;27.65;43.19
67818;BME280;54614;47.576;7.524;2022-08-01T07:43:51;98634.81;;;27.67;43.25
67818;BME280;54614;47.576;7.524;2022-08-01T07:46:17;98632.94;;;27.68;43.36
67818;BME280;54614;47.576;7.524;2022-08-01T07:48:43;98636.09;;;27.65;43.34
67818;BME280;54614;47.576;7.524;2022-08-01T07:51:09;98627.69;;;27.54;43.74
67818;BME280;54614;47.576;7.524;2022-08-01T07:53:36;98630.97;;;27.26;44.58
67818;BME280;54614;47.576;7.524;2022-08-01T07:56:03;98630.94;;;27.15;44.48
67818;BME280;54614;47.576;7.524;2022-08-01T07:58:32;98628.47;;;27.13;44.75
67818;BME280;54614;47.576;7.524;2022-08-01T08:00:58;98626.50;;;27.50;44.06
67818;BME280;54614;47.576;7.524;2022-08-01T08:03:24;98619.59;;;27.54;44.12
67818;BME280;54614;47.576;7.524;2022-08-01T08:05:50;98620.28;;;27.80;43.30
67818;BME280;54614;47.576;7.524;2022-08-01T08:08:16;98616.16;;;27.77;43.39
67818;BME280;54614;47.576;7.524;2022-08-01T08:10:44;98616.41;;;27.87;43.20
67818;BME280;54614;47.576;7.524;2022-08-01T08:13:10;98619.69;;;27.89;43.12
67818;BME280;54614;47.576;7.524;2022-08-01T08:15:36;98614.63;;;27.81;43.30
67818;BME280;54614;47.576;7.524;2022-08-01T08:18:03;98620.38;;;27.73;43.64
67818;BME280;54614;47.576;7.524;2022-08-01T08:20:30;98615.09;;;27.78;43.42
67818;BME280;54614;47.576;7.524;2022-08-01T08:22:56;98610.28;;;27.80;43.35
67818;BME280;54614;47.576;7.524;2022-08-01T08:25:25;98617.69;;;27.85;43.27
67818;BME280;54614;47.576;7.524;2022-08-01T08:27:52;98616.88;;;27.84;43.29
67818;BME280;54614;47.576;7.524;2022-08-01T08:30:19;98610.88;;;27.82;43.48
67818;BME280;54614;47.576;7.524;2022-08-01T08:32:45;98608.16;;;27.71;43.72
67818;BME280;54614;47.576;7.524;2022-08-01T08:35:11;98613.09;;;27.85;43.36
67818;BME280;54614;47.576;7.524;2022-08-01T08:37:38;98613.53;;;27.71;43.75
67818;BME280;54614;47.576;7.524;2022-08-01T08:40:05;98609.31;;;27.75;43.50
67818;BME280;54614;47.576;7.524;2022-08-01T08:42:32;98609.47;;;27.80;43.54
67818;BME280;54614;47.576;7.524;2022-08-01T08:44:58;98610.78;;;27.59;44.02
67818;BME280;54614;47.576;7.524;2022-08-01T08:47:25;98606.81;;;27.62;44.18
67818;BME280;54614;47.576;7.524;2022-08-01T08:49:55;98610.75;;;27.77;43.83
67818;BME280;54614;47.576;7.524;2022-08-01T08:52:22;98605.91;;;27.68;44.00
67818;BME280;54614;47.576;7.524;2022-08-01T08:54:51;98606.38;;;27.76;43.85
67818;BME280;54614;47.576;7.524;2022-08-01T08:57:20;98608.28;;;27.76;44.03
67818;BME280;54614;47.576;7.524;2022-08-01T08:59:47;98605.09;;;27.79;43.95
67818;BME280;54614;47.576;7.524;2022-08-01T09:02:13;98607.06;;;27.60;44.50
67818;BME280;54614;47.576;7.524;2022-08-01T09:04:39;98611.66;;;27.71;44.32
67818;BME280;54614;47.576;7.524;2022-08-01T09:07:06;98611.47;;;27.84;44.07
67818;BME280;54614;47.576;7.524;2022-08-01T09:09:34;98601.00;;;27.88;43.90
67818;BME280;54614;47.576;7.524;2022-08-01T09:12:00;98601.59;;;27.90;43.87
67818;BME280;54614;47.576;7.524;2022-08-01T09:14:27;98608.06;;;27.89;44.03
67818;BME280;54614;47.576;7.524;2022-08-01T09:17:09;98604.41;;;27.83;43.95
67818;BME280;54614;47.576;7.524;2022-08-01T09:19:45;98604.63;;;27.82;44.32
67818;BME280;54614;47.576;7.524;2022-08-01T09:22:17;98602.03;;;27.75;44.18
67818;BME280;54614;47.576;7.524;2022-08-01T09:27:32;98604.53;;;27.88;44.13
67818;BME280;54614;47.576;7.524;2022-08-01T09:30:17;98596.44;;;28.00;43.91
67818;BME280;54614;47.576;7.524;2022-08-01T09:33:03;98596.09;;;27.97;44.14
67818;BME280;54614;47.576;7.524;2022-08-01T09:35:34;98591.63;;;28.02;44.04
67818;BME280;54614;47.576;7.524;2022-08-01T09:38:19;98590.91;;;27.95;44.26
67818;BME280;54614;47.576;7.524;2022-08-01T09:40:46;98587.72;;;27.86;44.55
67818;BME280;54614;47.576;7.524;2022-08-01T09:43:13;98589.50;;;27.92;44.30
67818;BME280;54614;47.576;7.524;2022-08-01T09:45:39;98590.66;;;27.85;44.68
67818;BME280;54614;47.576;7.524;2022-08-01T09:48:09;98587.38;;;27.95;44.40
67818;BME280;54614;47.576;7.524;2022-08-01T09:50:43;98589.72;;;27.91;44.54
67818;BME280;54614;47.576;7.524;2022-08-01T09:53:10;98589.63;;;27.98;44.23
67818;BME280;54614;47.576;7.524;2022-08-01T09:55:41;98584.22;;;27.98;44.13
67818;BME280;54614;47.576;7.524;2022-08-01T09:58:08;98584.91;;;27.93;44.22
67818;BME280;54614;47.576;7.524;2022-08-01T10:00:39;98582.91;;;27.88;44.26
67818;BME280;54614;47.576;7.524;2022-08-01T10:03:24;98578.44;;;27.82;44.26
67818;BME280;54614;47.576;7.524;2022-08-01T10:05:51;98569.63;;;27.99;44.10
67818;BME280;54614;47.576;7.524;2022-08-01T10:08:19;98569.28;;;27.83;44.53
67818;BME280;54614;47.576;7.524;2022-08-01T10:11:12;98576.94;;;27.56;45.22
67818;BME280;54614;47.576;7.524;2022-08-01T10:13:39;98577.34;;;27.60;44.89
67818;BME280;54614;47.576;7.524;2022-08-01T10:16:06;98570.44;;;27.76;45.42
67818;BME280;54614;47.576;7.524;2022-08-01T10:18:34;98568.81;;;27.86;45.19
67818;BME280;54614;47.576;7.524;2022-08-01T10:21:03;98572.19;;;27.70;45.08
67818;BME280;54614;47.576;7.524;2022-08-01T10:23:35;98559.88;;;27.86;44.80
67818;BME280;54614;47.576;7.524;2022-08-01T10:26:05;98560.44;;;27.76;45.16
67818;BME280;54614;47.576;7.524;2022-08-01T10:28:35;98551.03;;;27.67;45.26
67818;BME280;54614;47.576;7.524;2022-08-01T10:31:02;98555.31;;;27.56;45.57
67818;BME280;54614;47.576;7.524;2022-08-01T10:33:30;98554.16;;;27.52;45.73
67818;BME280;54614;47.576;7.524;2022-08-01T10:35:57;98553.22;;;27.58;45.52
67818;BME280;54614;47.576;7.524;2022-08-01T10:38:23;98547.69;;;27.53;45.61
67818;BME280;54614;47.576;7.524;2022-08-01T10:40:50;98545.72;;;27.60;45.15
67818;BME280;54614;47.576;7.524;2022-08-01T10:43:18;98556.97;;;27.57;45.46
67818;BME280;54614;47.576;7.524;2022-08-01T10:45:44;98552.97;;;27.48;45.44
67818;BME280;54614;47.576;7.524;2022-08-01T10:51:16;98547.69;;;27.53;45.23
67818;BME280;54614;47.576;7.524;2022-08-01T10:53:52;98545.94;;;27.59;45.27
67818;BME280;54614;47.576;7.524;2022-08-01T10:56:19;98552.41;;;27.58;45.07
67818;BME280;54614;47.576;7.524;2022-08-01T10:58:47;98540.53;;;27.59;44.96
67818;BME280;54614;47.576;7.524;2022-08-01T11:01:30;98537.41;;;27.62;44.89
67818;BME280;54614;47.576;7.524;2022-08-01T11:04:11;98527.66;;;27.61;45.01
67818;BME280;54614;47.576;7.524;2022-08-01T11:06:52;98532.25;;;27.84;44.42
67818;BME280;54614;47.576;7.524;2022-08-01T11:09:29;98520.50;;;27.78;44.38
67818;BME280;54614;47.576;7.524;2022-08-01T11:14:25;98525.31;;;27.88;44.68
67818;BME280;54614;47.576;7.524;2022-08-01T11:16:50;98527.06;;;27.82;44.93
67818;BME280;54614;47.576;7.524;2022-08-01T11:19:16;98519.91;;;27.88;44.61
67818;BME280;54614;47.576;7.524;2022-08-01T11:32:54;98498.16;;;27.95;44.76
67818;BME280;54614;47.576;7.524;2022-08-01T11:35:25;98492.75;;;27.71;45.28
67818;BME280;54614;47.576;7.524;2022-08-01T11:37:53;98494.75;;;27.76;44.89
67818;BME280;54614;47.576;7.524;2022-08-01T11:40:28;98486.50;;;28.17;44.23
67818;BME280;54614;47.576;7.524;2022-08-01T11:43:15;98483.22;;;28.15;44.12
67818;BME280;54614;47.576;7.524;2022-08-01T11:45:54;98484.53;;;28.01;44.05
67818;BME280;54614;47.576;7.524;2022-08-01T11:48:28;98472.53;;;27.97;44.32
67818;BME280;54614;47.576;7.524;2022-08-01T11:50:56;98480.31;;;27.93;44.23
67818;BME280;54614;47.576;7.524;2022-08-01T11:53:22;98479.72;;;27.80;44.49
67818;BME280;54614;47.576;7.524;2022-08-01T11:55:53;98481.13;;;27.82;44.27
67818;BME280;54614;47.576;7.524;2022-08-01T11:58:26;98473.97;;;27.88;44.27
67818;BME280;54614;47.576;7.524;2022-08-01T12:00:57;98473.09;;;28.11;43.75
67818;BME280;54614;47.576;7.524;2022-08-01T12:03:31;98475.50;;;27.72;44.33
67818;BME280;54614;47.576;7.524;2022-08-01T12:05:58;98475.97;;;27.81;44.05
67818;BME280;54614;47.576;7.524;2022-08-01T12:08:32;98476.91;;;27.63;44.94
67818;BME280;54614;47.576;7.524;2022-08-01T12:11:01;98484.91;;;27.16;45.41
67818;BME280;54614;47.576;7.524;2022-08-01T12:13:27;98481.69;;;27.08;45.63
67818;BME280;54614;47.576;7.524;2022-08-01T12:15:54;98469.84;;;27.74;44.82
67818;BME280;54614;47.576;7.524;2022-08-01T12:18:20;98467.81;;;28.16;43.96
67818;BME280;54614;47.576;7.524;2022-08-01T12:20:46;98459.34;;;28.24;43.91
67818;BME280;54614;47.576;7.524;2022-08-01T12:23:15;98472.16;;;28.29;43.59
67818;BME280;54614;47.576;7.524;2022-08-01T12:25:42;98463.81;;;28.30;43.84
67818;BME280;54614;47.576;7.524;2022-08-01T12:28:12;98459.50;;;27.94;44.72
67818;BME280;54614;47.576;7.524;2022-08-01T12:30:40;98458.78;;;27.87;44.98
67818;BME280;54614;47.576;7.524;2022-08-01T12:33:09;98460.31;;;28.06;44.65
67818;BME280;54614;47.576;7.524;2022-08-01T12:35:38;98455.34;;;28.15;44.40
67818;BME280;54614;47.576;7.524;2022-08-01T12:38:14;98454.19;;;28.11;44.40
67818;BME280;54614;47.576;7.524;2022-08-01T12:40:43;98461.22;;;28.12;44.62
67818;BME280;54614;47.576;7.524;2022-08-01T12:43:10;98455.59;;;28.25;44.50
67818;BME280;54614;47.576;7.524;2022-08-01T12:45:43;98458.88;;;28.27;44.41
67818;BME280;54614;47.576;7.524;2022-08-01T12:48:17;98452.84;;;28.37;44.32
67818;BME280;54614;47.576;7.524;2022-08-01T12:50:52;98452.19;;;28.30;44.43
67818;BME280;54614;47.576;7.524;2022-08-01T12:53:18;98452.56;;;27.98;44.85
67818;BME280;54614;47.576;7.524;2022-08-01T12:55:51;98459.59;;;28.11;44.76
67818;BME280;54614;47.576;7.524;2022-08-01T12:58:19;98447.84;;;27.93;45.67
67818;BME280;54614;47.576;7.524;2022-08-01T13:00:49;98454.91;;;27.95;45.88
67818;BME280;54614;47.576;7.524;2022-08-01T13:03:20;98449.75;;;27.93;45.65
67818;BME280;54614;47.576;7.524;2022-08-01T13:05:55;98447.63;;;27.95;45.80
67818;BME280;54614;47.576;7.524;2022-08-01T13:08:39;98441.13;;;28.08;45.99
67818;BME280;54614;47.576;7.524;2022-08-01T13:11:08;98444.41;;;28.21;45.49
67818;BME280;54614;47.576;7.524;2022-08-01T13:13:40;98443.56;;;28.33;44.94
67818;BME280;54614;47.576;7.524;2022-08-01T13:16:08;98429.69;;;28.41;44.64
67818;BME280;54614;47.576;7.524;2022-08-01T13:18:35;98440.44;;;28.24;45.78
67818;BME280;54614;47.576;7.524;2022-08-01T13:21:29;98437.59;;;28.31;45.61
67818;BME280;54614;47.576;7.524;2022-08-01T13:29:10;98435.31;;;28.39;45.31
67818;BME280;54614;47.576;7.524;2022-08-01T13:31:38;98435.56;;;28.38;45.27
67818;BME280;54614;47.576;7.524;2022-08-01T13:34:04;98444.19;;;28.23;45.71
67818;BME280;54614;47.576;7.524;2022-08-01T13:36:31;98434.88;;;28.19;45.83
67818;BME280;54614;47.576;7.524;2022-08-01T13:38:59;98435.69;;;28.19;50.25
67818;BME280;54614;47.576;7.524;2022-08-01T13:41:44;98428.78;;;28.23;49.51
67818;BME280;54614;47.576;7.524;2022-08-01T13:44:10;98429.13;;;28.27;47.95
67818;BME280;54614;47.576;7.524;2022-08-01T13:46:40;98429.56;;;28.36;47.68